GCC Virtual Airport Information Service

Vancouver International Airport

ICAO: CYVR Country: CA
Latitude: 49.1939 Longitude: -123.184
Latest Arrival : GCT10141 (SBGL-CYVR) Latest Departure : GCT10141 (CYVR-LTFM)


WX CaptureLIVE
Data provided by noaa.gov | Fetched at 12:39:39

METAR : CYVR 051200Z 10010KT 20SM -RA OVC056 07/06 A2981 RMK SC8 SLP097

TAF : CYVR 051138Z 0512/0618 09010KT P6SM SCT050 OVC100 TEMPO 0512/0519 P6SM -SHRA OVC050 BECMG 0513/0515 12018G28KT FM051900 13015KT P6SM -RA SCT020 OVC050 TEMPO 0519/0524 4SM -SHRA BR BKN020 OVC050 BECMG 0520/0522 13008KT FM060000 13008KT P6SM BKN040 TEMPO 0600/0610 P6SM -SHRA BECMG 0602/0604 09008KT FM061000 10010G20KT P6SM FEW010 SCT020 OVC040 TEMPO 0610/0618 4SM -SHRA BR SCT010 BKN020 OVC040 RMK NXT FCST BY 051500Z


Runway Data for CYVR
Data provided by openaviationdata.com

Runway ID Mag Var Hdg Length Elevation Surface ILS Freq ILS Id ILS Slope
08L 19 81° 9918 ft 14 ft Concrete 110.55 ITL 3
08R 19 80° 11962 ft 14 ft Asphalt 109.5 IVR 3
12 19 122° 7290 ft 14 ft Asphalt 111.1 IMK 3
26L 19 260° 11962 ft 14 ft Asphalt 110.7 IFZ 3
26R 19 261° 9918 ft 14 ft Concrete 111.95 IRD 3
30 19 302° 7290 ft 14 ft Asphalt -- -- --

Vancouver International Airport, CA
Use only for reference purposes



Not for navigational purposes.